createdAt,value
2022-11-24T00:02:44.195Z,6.20
2022-11-24T00:05:30.806Z,4.10
2022-11-24T00:08:18.285Z,4.67
2022-11-24T00:11:10.131Z,8.23
2022-11-24T00:13:57.662Z,7.00
2022-11-24T00:16:44.067Z,5.27
2022-11-24T00:19:30.630Z,3.97
2022-11-24T00:22:16.895Z,9.43
2022-11-24T00:25:03.591Z,8.40
2022-11-24T00:27:50.285Z,6.50
2022-11-24T00:30:36.631Z,5.77
2022-11-24T00:33:23.278Z,5.53
2022-11-24T00:36:09.722Z,6.13
2022-11-24T00:38:58.085Z,9.40
2022-11-24T00:41:44.416Z,28.97
2022-11-24T00:44:31.092Z,5.07
2022-11-24T00:47:17.903Z,3.87
2022-11-24T00:50:04.907Z,8.03
2022-11-24T00:52:51.343Z,10.93
2022-11-24T00:55:37.689Z,7.23
2022-11-24T00:58:25.076Z,13.27
2022-11-24T01:01:15.027Z,8.53
2022-11-24T01:04:02.054Z,9.07
2022-11-24T01:06:48.653Z,5.57
2022-11-24T01:09:35.381Z,7.40
2022-11-24T01:12:21.476Z,7.00
2022-11-24T01:15:09.060Z,5.13
2022-11-24T01:17:56.581Z,6.33
2022-11-24T01:20:42.847Z,6.83
2022-11-24T01:23:29.192Z,10.03
2022-11-24T01:26:18.083Z,6.13
2022-11-24T01:29:05.023Z,5.73
2022-11-24T01:31:51.733Z,6.97
2022-11-24T01:34:38.020Z,6.27
2022-11-24T01:37:24.488Z,5.47
2022-11-24T01:40:11.315Z,7.37
2022-11-24T01:42:57.747Z,3.90
2022-11-24T01:45:45.150Z,4.47
2022-11-24T01:48:38.056Z,10.23
2022-11-24T01:51:28.491Z,5.13
2022-11-24T01:54:20.472Z,4.27
2022-11-24T01:57:22.481Z,3.43
2022-11-24T02:00:11.698Z,8.87
2022-11-24T02:03:00.966Z,6.03
2022-11-24T02:06:22.954Z,3.03
2022-11-24T02:09:30.688Z,3.47
2022-11-24T02:12:17.360Z,4.13
2022-11-24T02:15:04.288Z,6.43
2022-11-24T02:17:50.662Z,5.57
2022-11-24T02:20:38.037Z,5.20
2022-11-24T02:23:44.655Z,5.83
2022-11-24T02:26:38.854Z,4.03
2022-11-24T02:29:25.533Z,11.07
2022-11-24T02:32:12.262Z,1.97
2022-11-24T02:35:05.685Z,4.73
2022-11-24T02:37:52.140Z,8.87
2022-11-24T02:40:39.972Z,4.57
2022-11-24T02:43:30.488Z,3.93
2022-11-24T02:46:17.200Z,8.13
2022-11-24T02:49:03.673Z,2.37
2022-11-24T02:51:49.843Z,5.87
2022-11-24T02:54:36.443Z,12.00
2022-11-24T02:57:23.424Z,8.00
2022-11-24T03:00:10.557Z,6.17
2022-11-24T03:02:57.083Z,6.33
2022-11-24T03:05:43.694Z,3.77
2022-11-24T03:08:30.130Z,3.00
2022-11-24T03:11:16.592Z,3.80
2022-11-24T03:14:02.777Z,5.17
2022-11-24T03:16:49.392Z,2.67
2022-11-24T03:19:35.859Z,7.80
2022-11-24T03:22:22.201Z,3.07
2022-11-24T03:25:08.884Z,3.03
2022-11-24T03:27:58.046Z,6.70
2022-11-24T03:30:44.415Z,8.00
2022-11-24T03:33:31.137Z,8.27
2022-11-24T03:36:18.135Z,6.60
2022-11-24T03:39:04.524Z,5.00
2022-11-24T03:41:53.839Z,16.17
2022-11-24T03:44:40.277Z,4.60
2022-11-24T03:47:26.648Z,7.00
2022-11-24T03:50:12.797Z,5.37
2022-11-24T03:52:59.015Z,2.47
2022-11-24T03:55:45.229Z,3.13
2022-11-24T03:58:31.721Z,3.77
2022-11-24T04:01:18.412Z,4.60
2022-11-24T04:04:05.201Z,8.87
2022-11-24T04:06:51.813Z,3.47
2022-11-24T04:09:38.304Z,6.83
2022-11-24T04:12:43.649Z,3.80
2022-11-24T04:15:29.807Z,7.30
2022-11-24T04:18:16.165Z,5.17
2022-11-24T04:21:02.842Z,3.97
2022-11-24T04:23:49.181Z,3.13
2022-11-24T04:26:36.437Z,2.80
2022-11-24T04:29:23.112Z,12.23
2022-11-24T04:32:09.307Z,4.17
2022-11-24T04:34:55.568Z,3.10
2022-11-24T04:37:41.841Z,3.37
2022-11-24T04:40:27.970Z,6.00
2022-11-24T04:43:14.265Z,4.60
2022-11-24T04:46:01.583Z,4.23
2022-11-24T04:48:47.730Z,3.37
2022-11-24T04:51:34.233Z,3.80
2022-11-24T04:54:20.299Z,6.63
2022-11-24T04:57:06.776Z,2.90
2022-11-24T04:59:54.039Z,6.50
2022-11-24T05:02:40.266Z,4.27
2022-11-24T05:05:26.520Z,3.73
2022-11-24T05:08:13.094Z,5.77
2022-11-24T05:11:04.518Z,2.90
2022-11-24T05:13:52.960Z,4.83
2022-11-24T05:16:39.326Z,6.00
2022-11-24T05:19:29.846Z,1.63
2022-11-24T05:22:18.684Z,2.27
2022-11-24T05:25:05.397Z,5.60
2022-11-24T05:27:51.787Z,2.53
2022-11-24T05:30:39.449Z,5.40
2022-11-24T05:33:28.460Z,6.67
2022-11-24T05:36:33.315Z,3.40
2022-11-24T05:39:20.473Z,5.57
2022-11-24T05:42:26.697Z,3.33
2022-11-24T05:45:15.501Z,3.87
2022-11-24T05:48:07.550Z,4.63
2022-11-24T05:50:58.514Z,2.90
2022-11-24T05:53:45.209Z,4.43
2022-11-24T05:56:31.447Z,4.97
2022-11-24T05:59:17.559Z,3.20
2022-11-24T06:02:04.535Z,8.13
2022-11-24T06:04:50.793Z,6.73
2022-11-24T06:07:36.966Z,5.07
2022-11-24T06:10:26.486Z,5.43
2022-11-24T06:13:13.224Z,3.40
2022-11-24T06:15:59.762Z,8.47
2022-11-24T06:18:45.987Z,6.47
2022-11-24T06:21:32.372Z,6.03
2022-11-24T06:24:18.740Z,3.77
2022-11-24T06:27:04.834Z,3.07
2022-11-24T06:29:51.264Z,8.03
2022-11-24T06:32:38.865Z,5.50
2022-11-24T06:35:25.211Z,5.13
2022-11-24T06:38:11.431Z,6.47
2022-11-24T06:41:01.457Z,7.70
2022-11-24T06:43:47.973Z,7.47
2022-11-24T06:46:34.319Z,4.60
2022-11-24T06:49:20.641Z,12.30
2022-11-24T06:52:07.303Z,5.20
2022-11-24T06:54:53.863Z,4.90
2022-11-24T06:57:40.175Z,10.83
2022-11-24T07:00:29.208Z,5.27
2022-11-24T07:03:16.878Z,9.70
2022-11-24T07:06:03.216Z,5.57
2022-11-24T07:08:50.620Z,14.70
2022-11-24T07:11:37.662Z,3.47
2022-11-24T07:14:23.945Z,5.87
2022-11-24T07:17:10.296Z,6.73
2022-11-24T07:19:56.564Z,4.37
2022-11-24T07:22:42.741Z,4.10
2022-11-24T07:25:29.132Z,9.47
2022-11-24T07:28:15.364Z,5.13
2022-11-24T07:31:09.473Z,10.13
2022-11-24T07:33:55.944Z,6.83
2022-11-24T07:36:42.810Z,5.17
2022-11-24T07:39:29.624Z,3.13
2022-11-24T07:42:15.834Z,4.63
2022-11-24T07:45:02.114Z,3.57
2022-11-24T07:47:48.449Z,3.00
2022-11-24T07:50:34.692Z,4.37
2022-11-24T07:53:20.951Z,2.37
2022-11-24T07:56:08.009Z,1.27
2022-11-24T07:58:54.360Z,1.60
2022-11-24T08:01:40.897Z,1.40
2022-11-24T08:04:27.449Z,4.87
2022-11-24T08:07:13.905Z,2.10
2022-11-24T08:10:00.548Z,0.80
2022-11-24T08:12:46.712Z,3.30
2022-11-24T08:15:33.154Z,0.60
2022-11-24T08:18:19.213Z,2.33
2022-11-24T08:21:06.520Z,0.90
2022-11-24T08:23:56.856Z,1.23
2022-11-24T08:26:43.285Z,0.47
2022-11-24T08:29:30.840Z,1.47
2022-11-24T08:32:21.920Z,0.83
2022-11-24T08:35:14.088Z,1.27
2022-11-24T08:38:04.758Z,0.83
2022-11-24T08:40:51.536Z,1.90
2022-11-24T08:43:38.575Z,1.10
2022-11-24T08:46:25.197Z,0.30
2022-11-24T08:49:15.025Z,0.83
2022-11-24T08:52:01.569Z,0.60
2022-11-24T08:54:47.953Z,0.80
2022-11-24T08:57:34.164Z,0.87
2022-11-24T09:00:23.322Z,0.23
2022-11-24T09:03:11.963Z,3.13
2022-11-24T09:05:58.210Z,3.87
2022-11-24T09:08:44.330Z,1.37
2022-11-24T09:11:30.937Z,1.20
2022-11-24T09:14:17.307Z,6.07
2022-11-24T09:17:03.858Z,0.60
2022-11-24T09:19:50.107Z,1.13
2022-11-24T09:22:38.086Z,0.77
2022-11-24T09:25:24.509Z,0.80
2022-11-24T09:28:10.654Z,1.93
2022-11-24T09:31:04.520Z,0.87
2022-11-24T09:33:52.292Z,1.50
2022-11-24T09:36:38.627Z,0.27
2022-11-24T09:39:24.877Z,2.20
2022-11-24T09:42:29.632Z,1.70
2022-11-24T09:45:57.457Z,0.30
2022-11-24T09:48:46.565Z,1.97
2022-11-24T09:51:33.884Z,4.03
2022-11-24T09:54:25.337Z,0.83
2022-11-24T09:57:14.278Z,0.53
2022-11-24T10:00:06.908Z,0.50
2022-11-24T10:02:58.254Z,0.67
2022-11-24T10:05:48.620Z,1.40
2022-11-24T10:09:03.190Z,2.33
2022-11-24T10:12:23.527Z,1.73
2022-11-24T10:15:19.223Z,1.17
2022-11-24T10:18:31.856Z,1.17
2022-11-24T10:21:50.808Z,1.30
2022-11-24T10:25:01.584Z,2.67
2022-11-24T10:27:55.984Z,1.67
2022-11-24T10:30:42.999Z,1.60
2022-11-24T10:33:31.008Z,1.67
2022-11-24T10:36:31.658Z,1.47
2022-11-24T10:39:37.240Z,2.77
2022-11-24T10:42:29.662Z,3.50
2022-11-24T10:45:19.328Z,1.07
2022-11-24T10:48:27.208Z,3.23
2022-11-24T10:51:50.980Z,1.60
2022-11-24T10:54:57.334Z,4.70
2022-11-24T10:57:45.171Z,6.93
2022-11-24T11:00:34.101Z,3.90
2022-11-24T11:03:37.995Z,2.33
2022-11-24T11:06:29.490Z,2.63
2022-11-24T11:09:22.842Z,3.67
2022-11-24T11:12:47.900Z,4.63
2022-11-24T11:15:34.177Z,5.37
2022-11-24T11:18:21.694Z,4.23
2022-11-24T11:21:24.028Z,3.20
2022-11-24T11:24:16.804Z,3.10
2022-11-24T11:27:16.217Z,6.67
2022-11-24T11:36:43.350Z,4.40
2022-11-24T11:39:34.854Z,6.07
2022-11-24T11:45:45.420Z,4.10
2022-11-24T11:48:42.843Z,4.03
2022-11-24T11:52:04.908Z,4.30
2022-11-24T11:55:14.525Z,8.70
2022-11-24T11:58:26.882Z,14.93
2022-11-24T12:01:31.985Z,17.50
2022-11-24T12:04:40.180Z,14.53
2022-11-24T12:07:51.151Z,7.13
2022-11-24T12:10:46.077Z,6.83
2022-11-24T12:13:53.685Z,11.17
2022-11-24T12:16:55.801Z,5.30
2022-11-24T12:20:09.021Z,6.80
2022-11-24T12:23:11.085Z,5.27
2022-11-24T12:26:07.101Z,4.77
2022-11-24T12:29:27.878Z,4.93
2022-11-24T12:32:47.231Z,17.30
2022-11-24T12:35:45.685Z,6.57
2022-11-24T12:39:01.448Z,5.03
2022-11-24T12:42:05.255Z,2.57
2022-11-24T12:45:03.524Z,4.83
2022-11-24T12:48:08.307Z,11.90
2022-11-24T12:50:57.647Z,3.70
2022-11-24T12:53:46.456Z,5.17
2022-11-24T12:57:01.342Z,4.33
2022-11-24T12:59:56.427Z,9.90
2022-11-24T13:03:00.577Z,7.70
2022-11-24T13:06:01.132Z,2.43
2022-11-24T13:08:47.885Z,3.67
2022-11-24T13:12:14.357Z,3.03
2022-11-24T13:15:00.921Z,2.87
2022-11-24T13:18:05.188Z,4.57
2022-11-24T13:20:53.726Z,3.37
2022-11-24T13:23:40.293Z,3.73
2022-11-24T13:26:30.186Z,3.07
2022-11-24T13:29:51.959Z,5.53
2022-11-24T13:32:38.484Z,3.23
2022-11-24T13:35:24.940Z,8.03
2022-11-24T13:38:45.693Z,5.83
2022-11-24T13:41:32.382Z,10.03
2022-11-24T13:44:24.900Z,1.73
2022-11-24T13:47:37.162Z,6.63
2022-11-24T13:50:45.293Z,7.43
2022-11-24T13:53:41.042Z,3.77
2022-11-24T13:56:30.405Z,6.43
2022-11-24T13:59:27.629Z,4.27
2022-11-24T14:02:23.244Z,4.57
2022-11-24T14:05:14.633Z,3.47
2022-11-24T14:08:01.794Z,3.23
2022-11-24T14:10:48.606Z,10.60
2022-11-24T14:13:35.060Z,8.80
2022-11-24T14:16:23.274Z,5.83
2022-11-24T14:19:10.800Z,6.27
2022-11-24T14:21:57.379Z,6.93
2022-11-24T14:24:47.069Z,6.20
2022-11-24T14:27:39.016Z,13.67
2022-11-24T14:30:25.622Z,11.63
2022-11-24T14:33:15.921Z,3.67
2022-11-24T14:36:02.201Z,4.90
2022-11-24T14:38:48.415Z,10.13
2022-11-24T14:41:34.722Z,7.83
2022-11-24T14:44:26.764Z,4.13
2022-11-24T14:47:24.568Z,5.87
2022-11-24T14:50:19.606Z,6.50
2022-11-24T14:53:14.020Z,3.40
2022-11-24T14:56:08.529Z,3.50
2022-11-24T14:58:56.937Z,5.03
2022-11-24T15:01:43.434Z,2.93
2022-11-24T15:04:54.779Z,3.77
2022-11-24T15:07:41.055Z,6.40
2022-11-24T15:10:33.879Z,3.87
2022-11-24T15:13:24.015Z,3.23
2022-11-24T15:16:19.911Z,5.47
2022-11-24T15:19:15.941Z,3.97
2022-11-24T15:22:34.367Z,5.93
2022-11-24T15:25:33.491Z,5.10
2022-11-24T15:28:25.539Z,10.30
2022-11-24T15:31:13.975Z,12.73
2022-11-24T15:34:00.264Z,10.20
2022-11-24T15:36:46.488Z,11.17
2022-11-24T15:39:32.717Z,7.40
2022-11-24T15:42:18.958Z,6.30
2022-11-24T15:45:05.595Z,4.90
2022-11-24T15:47:52.123Z,6.27
2022-11-24T15:50:39.061Z,4.93
2022-11-24T15:53:36.006Z,5.93
2022-11-24T15:56:33.603Z,6.30
2022-11-24T15:59:21.283Z,5.43
2022-11-24T16:02:09.197Z,7.43
2022-11-24T16:04:55.816Z,12.50
2022-11-24T16:07:42.377Z,9.80
2022-11-24T16:10:31.792Z,10.40
2022-11-24T16:13:18.149Z,8.23
2022-11-24T16:16:04.538Z,10.00
2022-11-24T16:18:50.791Z,17.63
2022-11-24T16:21:37.188Z,10.47
2022-11-24T16:24:23.531Z,9.43
2022-11-24T16:27:09.696Z,9.53
2022-11-24T16:29:56.045Z,8.63
2022-11-24T16:32:42.343Z,8.33
2022-11-24T16:35:28.658Z,10.03
2022-11-24T16:38:17.228Z,9.97
2022-11-24T16:41:03.400Z,14.27
2022-11-24T16:43:49.683Z,9.93
2022-11-24T16:46:36.014Z,12.53
2022-11-24T16:49:22.096Z,11.53
2022-11-24T16:52:08.520Z,10.33
2022-11-24T16:54:54.803Z,12.17
2022-11-24T16:57:41.089Z,9.47
2022-11-24T17:00:27.516Z,10.97
2022-11-24T17:03:13.869Z,8.03
2022-11-24T17:06:00.759Z,7.53
2022-11-24T17:08:48.187Z,13.33
2022-11-24T17:11:35.093Z,10.87
2022-11-24T17:14:21.300Z,6.47
2022-11-24T17:17:07.646Z,6.63
2022-11-24T17:19:53.761Z,9.07
2022-11-24T17:22:39.946Z,8.57
2022-11-24T17:25:26.095Z,11.60
2022-11-24T17:28:12.343Z,10.67
2022-11-24T17:30:58.520Z,14.27
2022-11-24T17:33:44.906Z,6.17
2022-11-24T17:36:33.160Z,13.70
2022-11-24T17:39:24.509Z,27.90
2022-11-24T17:42:11.352Z,48.33
2022-11-24T17:44:57.735Z,49.70
2022-11-24T17:47:44.157Z,31.83
2022-11-24T17:50:30.421Z,23.60
2022-11-24T17:53:16.797Z,15.20
2022-11-24T17:56:04.192Z,20.60
2022-11-24T17:58:55.560Z,19.47
2022-11-24T18:01:42.049Z,14.03
2022-11-24T18:04:28.668Z,11.67
2022-11-24T18:07:15.067Z,11.17
2022-11-24T18:10:01.447Z,12.43
2022-11-24T18:12:47.849Z,15.77
2022-11-24T18:15:35.097Z,13.67
2022-11-24T18:18:21.357Z,16.93
2022-11-24T18:21:13.594Z,13.67
2022-11-24T18:23:59.996Z,13.00
2022-11-24T18:26:46.709Z,14.70
2022-11-24T18:29:32.973Z,20.90
2022-11-24T18:32:19.673Z,25.27
2022-11-24T18:35:06.449Z,18.43
2022-11-24T18:37:53.425Z,16.70
2022-11-24T18:40:40.482Z,16.43
2022-11-24T18:43:28.776Z,18.97
2022-11-24T18:46:17.360Z,18.20
2022-11-24T18:49:04.398Z,21.50
2022-11-24T18:51:50.898Z,24.23
2022-11-24T18:54:37.326Z,24.23
2022-11-24T18:57:24.083Z,25.17
2022-11-24T19:00:11.244Z,18.27
2022-11-24T19:02:59.389Z,17.43
2022-11-24T19:05:46.105Z,17.00
2022-11-24T19:08:33.625Z,17.20
2022-11-24T19:11:26.180Z,23.47
2022-11-24T19:14:15.639Z,15.00
2022-11-24T19:17:03.664Z,14.03
2022-11-24T19:19:51.527Z,20.07
2022-11-24T19:22:37.807Z,19.87
2022-11-24T19:25:24.063Z,19.13
2022-11-24T19:28:12.597Z,17.97
2022-11-24T19:31:04.786Z,16.47
2022-11-24T19:33:52.843Z,18.53
2022-11-24T19:36:40.581Z,13.20
2022-11-24T19:39:26.795Z,20.93
2022-11-24T19:42:13.253Z,19.80
2022-11-24T19:44:59.721Z,17.20
2022-11-24T19:47:45.878Z,15.27
2022-11-24T19:50:32.297Z,12.83
2022-11-24T19:53:18.632Z,15.93
2022-11-24T19:56:09.529Z,14.13
2022-11-24T19:58:56.674Z,10.77
2022-11-24T20:01:43.037Z,11.77
2022-11-24T20:04:29.938Z,9.17
2022-11-24T20:07:16.754Z,13.73
2022-11-24T20:10:07.783Z,15.33
2022-11-24T20:12:54.506Z,14.13
2022-11-24T20:15:40.795Z,11.83
2022-11-24T20:18:27.400Z,13.50
2022-11-24T20:21:16.825Z,13.70
2022-11-24T20:24:18.089Z,20.37
2022-11-24T20:27:04.517Z,20.90
2022-11-24T20:29:50.724Z,13.47
2022-11-24T20:32:37.160Z,14.80
2022-11-24T20:35:23.273Z,18.67
2022-11-24T20:38:09.616Z,22.03
2022-11-24T20:41:09.425Z,21.20
2022-11-24T20:44:00.062Z,15.17
2022-11-24T20:46:47.579Z,15.70
2022-11-24T20:49:34.272Z,15.63
2022-11-24T20:52:20.519Z,17.17
2022-11-24T20:55:07.932Z,18.73
2022-11-24T20:57:54.147Z,15.83
2022-11-24T21:00:40.706Z,16.53
2022-11-24T21:03:27.223Z,20.77
2022-11-24T21:06:14.792Z,18.23
2022-11-24T21:09:03.978Z,14.57
2022-11-24T21:11:50.985Z,19.00
2022-11-24T21:14:37.552Z,22.67
2022-11-24T21:17:24.098Z,21.63
2022-11-24T21:20:10.587Z,19.30
2022-11-24T21:22:58.168Z,17.63
2022-11-24T21:25:44.277Z,20.73
2022-11-24T21:28:31.072Z,18.50
2022-11-24T21:31:20.122Z,15.57
2022-11-24T21:34:07.727Z,13.73
2022-11-24T21:36:54.162Z,12.70
2022-11-24T21:39:44.455Z,16.80
2022-11-24T21:42:30.782Z,16.60
2022-11-24T21:45:17.233Z,19.83
2022-11-24T21:48:03.714Z,15.17
2022-11-24T21:50:50.105Z,13.73
2022-11-24T21:53:38.472Z,15.13
2022-11-24T21:56:24.867Z,15.40
2022-11-24T21:59:11.587Z,18.20
2022-11-24T22:01:58.460Z,14.07
2022-11-24T22:04:45.377Z,14.80
2022-11-24T22:07:32.586Z,18.90
2022-11-24T22:10:19.211Z,14.43
2022-11-24T22:13:05.740Z,17.63
2022-11-24T22:16:03.669Z,18.00
2022-11-24T22:18:50.609Z,20.93
2022-11-24T22:21:36.990Z,16.53
2022-11-24T22:24:27.213Z,19.20
2022-11-24T22:27:13.793Z,13.37
2022-11-24T22:30:00.279Z,18.57
2022-11-24T22:32:46.515Z,15.37
2022-11-24T22:35:33.151Z,12.80
2022-11-24T22:38:19.610Z,16.77
2022-11-24T22:41:11.664Z,17.37
2022-11-24T22:43:58.127Z,15.73
2022-11-24T22:46:44.351Z,17.43
2022-11-24T22:49:30.591Z,17.53
2022-11-24T22:52:16.914Z,15.67
2022-11-24T22:55:03.447Z,13.50
2022-11-24T22:57:52.207Z,21.73
2022-11-24T23:00:39.635Z,16.33
2022-11-24T23:03:26.156Z,11.80
2022-11-24T23:06:16.696Z,16.50
2022-11-24T23:09:04.482Z,15.20
2022-11-24T23:11:50.971Z,14.17
2022-11-24T23:14:37.354Z,16.97
2022-11-24T23:17:24.255Z,15.87
2022-11-24T23:20:11.417Z,17.20
2022-11-24T23:22:58.297Z,17.07
2022-11-24T23:25:44.611Z,15.80
2022-11-24T23:28:31.053Z,16.27
2022-11-24T23:31:20.746Z,18.57
2022-11-24T23:34:07.541Z,24.13
2022-11-24T23:36:53.780Z,18.37
2022-11-24T23:39:40.066Z,16.50
2022-11-24T23:42:26.542Z,22.20
2022-11-24T23:45:12.688Z,16.63
2022-11-24T23:47:58.923Z,17.07
2022-11-24T23:50:45.150Z,21.43
2022-11-24T23:53:33.133Z,23.87
2022-11-24T23:56:31.488Z,16.27
2022-11-24T23:59:18.896Z,15.87
